Time;durP1;ratioP1;P1;durP2;ratioP2;P2;SDS_P1;SDS_P2;PMS_P1;PMS_P2;Temp;Humidity;BMP_temperature;BMP_pressure;BME280_temperature;BME280_humidity;BME280_pressure;Samples;Min_cycle;Max_cycle;Signal;HPM_P1;HPM_P2
2023/03/29 00:02:55;;;;;;;1.55;0.70;;;;;;;16.85;51.25;96930.69;10380396;28;20064;-30
2023/03/29 00:08:00;;;;;;;0.98;0.82;;;;;;;16.85;51.50;96938.28;10377147;28;20048;-30
2023/03/29 00:13:01;;;;;;;0.68;0.68;;;;;;;16.84;51.28;96934.06;10393163;28;20034;-30
2023/03/29 00:18:02;;;;;;;0.70;0.70;;;;;;;16.85;51.12;96926.50;10394262;28;20037;-30
2023/03/29 00:23:02;;;;;;;0.80;0.43;;;;;;;16.83;51.46;96917.19;10384716;28;20049;-30
2023/03/29 00:28:03;;;;;;;1.02;0.70;;;;;;;16.86;51.40;96917.22;10375502;28;20772;-30
2023/03/29 00:33:03;;;;;;;0.98;0.60;;;;;;;16.85;50.95;96913.00;10377957;28;20116;-30
2023/03/29 00:38:05;;;;;;;0.87;0.60;;;;;;;16.92;51.87;96920.63;10370622;28;20037;-30
2023/03/29 00:43:09;;;;;;;0.73;0.70;;;;;;;16.93;51.69;96922.34;10384995;28;20026;-30
2023/03/29 00:48:14;;;;;;;1.00;0.63;;;;;;;16.87;51.41;96913.84;10379792;28;20053;-30
2023/03/29 00:53:25;;;;;;;1.95;0.77;;;;;;;16.81;51.54;96898.63;10382983;28;20065;-30
2023/03/29 00:58:33;;;;;;;1.02;0.70;;;;;;;16.82;51.32;96921.38;10379333;28;20025;-30
2023/03/29 01:03:44;;;;;;;1.42;0.60;;;;;;;16.82;51.27;96906.22;10371895;28;20029;-29
2023/03/29 01:08:54;;;;;;;0.82;0.50;;;;;;;16.82;51.23;96883.47;10358831;28;20038;-30
2023/03/29 01:13:58;;;;;;;0.57;0.57;;;;;;;16.81;51.14;96875.88;10362918;28;20034;-29
2023/03/29 01:19:01;;;;;;;0.40;0.40;;;;;;;16.81;51.06;96876.72;10346786;28;20120;-30
2023/03/29 01:24:16;;;;;;;0.63;0.50;;;;;;;16.80;50.64;96871.63;10353904;28;20131;-30
2023/03/29 01:29:27;;;;;;;0.88;0.70;;;;;;;16.78;51.31;96870.78;10358930;28;20025;-30
2023/03/29 01:34:37;;;;;;;1.10;0.80;;;;;;;16.78;51.07;96878.38;10365995;28;20497;-30
2023/03/29 01:39:37;;;;;;;0.73;0.63;;;;;;;16.79;51.14;96869.94;10366604;28;20033;-30
2023/03/29 01:44:47;;;;;;;1.63;0.60;;;;;;;16.79;50.83;96860.69;10346734;28;20087;-29
2023/03/29 01:50:00;;;;;;;0.50;0.50;;;;;;;16.86;51.28;96871.69;10365915;28;20473;-30
2023/03/29 01:55:11;;;;;;;1.15;0.70;;;;;;;16.91;51.57;96859.94;10374407;28;20065;-30
2023/03/29 02:00:15;;;;;;;0.82;0.60;;;;;;;16.88;50.80;96872.53;10372952;28;20071;-30
2023/03/29 02:05:18;;;;;;;0.50;0.50;;;;;;;16.82;50.74;96862.41;10381405;28;20045;-30
2023/03/29 02:10:20;;;;;;;1.25;0.60;;;;;;;16.78;51.37;96868.25;10376999;28;20022;-30
2023/03/29 02:15:22;;;;;;;1.95;0.52;;;;;;;16.77;50.81;96846.34;10356756;28;20051;-30
2023/03/29 02:20:28;;;;;;;0.47;0.43;;;;;;;16.79;50.56;96862.34;10360667;28;20026;-30
2023/03/29 02:25:31;;;;;;;1.30;0.70;;;;;;;16.80;50.38;96846.34;10364534;28;20619;-30
2023/03/29 02:31:09;;;;;;;0.40;0.40;;;;;;;16.81;50.44;96848.06;10341658;28;20033;-30
2023/03/29 02:36:19;;;;;;;0.68;0.50;;;;;;;16.79;50.42;96847.19;10357471;28;20030;-30
2023/03/29 02:41:22;;;;;;;0.75;0.52;;;;;;;16.80;50.60;96828.66;10329425;28;20049;-30
2023/03/29 02:46:23;;;;;;;0.82;0.50;;;;;;;16.78;50.59;96837.91;10347224;28;20033;-29
2023/03/29 02:51:28;;;;;;;0.90;0.60;;;;;;;16.77;50.64;96832.88;10353734;28;20030;-30
2023/03/29 02:56:29;;;;;;;0.70;0.40;;;;;;;16.75;50.55;96822.72;10353897;28;20076;-30
2023/03/29 03:01:29;;;;;;;1.02;0.77;;;;;;;16.84;50.26;96827.84;10363567;28;20034;-30
2023/03/29 03:06:30;;;;;;;0.43;0.43;;;;;;;16.88;51.07;96830.41;10356882;28;20486;-30
2023/03/29 03:11:32;;;;;;;0.47;0.33;;;;;;;16.90;50.23;96825.38;10339908;28;20032;-30
2023/03/29 03:16:32;;;;;;;0.50;0.50;;;;;;;16.75;50.54;96810.09;10364871;28;20406;-30
2023/03/29 03:21:33;;;;;;;0.50;0.40;;;;;;;16.79;50.10;96835.41;10350385;28;20033;-30
2023/03/29 03:26:34;;;;;;;1.85;0.95;;;;;;;16.77;51.02;96816.84;10364745;28;20033;-30
2023/03/29 03:31:35;;;;;;;0.50;0.45;;;;;;;16.79;49.89;96814.31;10347504;28;20026;-29
2023/03/29 03:36:49;;;;;;;0.98;0.60;;;;;;;16.77;50.39;96816.00;10355681;28;20502;-30
2023/03/29 03:41:49;;;;;;;0.57;0.50;;;;;;;16.78;50.27;96807.56;10344714;28;20041;-30
2023/03/29 03:46:51;;;;;;;0.60;0.45;;;;;;;16.73;50.43;96817.66;10363583;28;20568;-30
2023/03/29 03:51:51;;;;;;;0.63;0.40;;;;;;;16.73;50.46;96807.53;10389523;28;20095;-30
2023/03/29 03:56:53;;;;;;;0.82;0.52;;;;;;;16.74;50.12;96810.94;10389540;28;20033;-30
2023/03/29 04:02:01;;;;;;;0.82;0.60;;;;;;;16.75;50.40;96797.44;10372459;28;20098;-30
2023/03/29 04:07:02;;;;;;;0.98;0.88;;;;;;;16.82;49.24;96809.31;10363727;28;20564;-30
2023/03/29 04:12:13;;;;;;;0.82;0.50;;;;;;;16.90;49.19;96800.94;10356147;28;20032;-30
2023/03/29 04:17:15;;;;;;;0.70;0.50;;;;;;;16.96;49.71;96792.53;10331645;28;20117;-30
2023/03/29 04:22:24;;;;;;;1.35;0.47;;;;;;;17.00;49.87;96799.31;10364814;28;20105;-30
2023/03/29 04:27:25;;;;;;;0.63;0.50;;;;;;;17.01;48.46;96786.69;10359612;28;20036;-30
2023/03/29 04:32:25;;;;;;;1.30;0.50;;;;;;;16.99;48.92;96778.22;10339706;28;20026;-30
2023/03/29 04:37:44;;;;;;;2.38;0.77;;;;;;;16.98;49.27;96785.81;10349754;28;20287;-30
2023/03/29 04:42:47;;;;;;;1.75;0.50;;;;;;;16.95;49.62;96770.59;10342756;28;20491;-30
2023/03/29 04:47:48;;;;;;;0.75;0.55;;;;;;;16.96;49.15;96777.34;10328050;28;20159;-30
2023/03/29 04:52:51;;;;;;;0.70;0.50;;;;;;;16.95;49.91;96795.91;10334856;28;20040;-30
2023/03/29 04:57:52;;;;;;;3.13;0.90;;;;;;;16.92;49.79;96789.13;10341364;28;20029;-30
2023/03/29 05:02:56;;;;;;;1.38;0.63;;;;;;;16.92;49.10;96785.78;10354770;28;20046;-30
2023/03/29 05:07:57;;;;;;;6.15;1.00;;;;;;;16.94;50.68;96784.09;10355187;28;20121;-30
2023/03/29 05:13:05;;;;;;;4.32;0.93;;;;;;;16.90;50.68;96792.50;10371345;28;20029;-30
2023/03/29 05:18:06;;;;;;;6.78;1.17;;;;;;;16.91;50.73;96811.91;10360764;28;20026;-30
2023/03/29 05:23:06;;;;;;;3.78;1.08;;;;;;;16.91;51.48;96800.09;10330464;28;20125;-30
2023/03/29 05:28:39;;;;;;;6.80;1.20;;;;;;;16.89;48.37;96800.94;10344686;28;20050;-30
2023/03/29 05:33:40;;;;;;;5.53;1.10;;;;;;;16.91;51.00;96805.16;10359040;28;20112;-30
2023/03/29 05:38:43;;;;;;;2.50;0.80;;;;;;;16.95;50.15;96804.34;10358000;28;20032;-30
2023/03/29 05:43:44;;;;;;;5.25;1.10;;;;;;;16.96;50.82;96797.59;10359091;28;20112;-30
2023/03/29 05:48:45;;;;;;;5.28;0.80;;;;;;;16.91;50.64;96795.03;10348235;28;20528;-30
2023/03/29 05:53:45;;;;;;;2.67;1.17;;;;;;;16.90;51.21;96812.75;10351877;28;20037;-30
2023/03/29 05:58:46;;;;;;;1.53;0.70;;;;;;;16.87;51.05;96800.06;10356944;28;20089;-30
2023/03/29 06:03:47;;;;;;;4.70;0.90;;;;;;;16.89;51.00;96808.53;10347434;28;20297;-30
2023/03/29 06:08:49;;;;;;;3.47;0.88;;;;;;;16.86;51.58;96805.94;10353107;28;20058;-30
2023/03/29 06:14:06;;;;;;;3.35;0.80;;;;;;;16.87;51.26;96812.69;10364739;28;20022;-30
2023/03/29 06:19:06;;;;;;;2.30;0.93;;;;;;;16.86;51.25;96800.91;10355288;28;20034;-30
2023/03/29 06:24:08;;;;;;;1.58;0.90;;;;;;;16.84;51.84;96797.50;10355485;28;20572;-30
2023/03/29 06:29:14;;;;;;;2.03;0.97;;;;;;;16.84;51.27;96802.56;10357437;28;20108;-30
2023/03/29 06:34:16;;;;;;;2.40;0.93;;;;;;;16.78;51.40;96797.47;10364159;28;20034;-30
2023/03/29 06:39:37;;;;;;;1.05;0.60;;;;;;;16.85;51.51;96814.38;10325934;28;20137;-30
2023/03/29 06:44:58;;;;;;;5.43;1.02;;;;;;;16.90;51.65;96812.75;10339633;28;20045;-30
2023/03/29 06:49:58;;;;;;;3.97;0.83;;;;;;;16.92;51.79;96816.94;10377680;28;20030;-30
2023/03/29 06:55:10;;;;;;;1.25;0.63;;;;;;;16.90;50.66;96812.75;10356724;28;20039;-30
2023/03/29 07:00:17;;;;;;;1.25;0.60;;;;;;;16.84;51.03;96818.56;10329157;28;20080;-30
2023/03/29 07:06:03;;;;;;;4.00;0.70;;;;;;;16.82;51.47;96822.78;10371100;28;20203;-30
2023/03/29 07:11:05;;;;;;;1.20;0.60;;;;;;;16.82;51.65;96827.00;10342871;28;20049;-30
2023/03/29 07:16:35;;;;;;;3.37;0.80;;;;;;;16.81;51.33;96846.38;10347429;28;20538;-30
2023/03/29 07:21:46;;;;;;;1.05;0.70;;;;;;;16.78;51.83;96858.13;10368800;28;20037;-30
2023/03/29 07:26:47;;;;;;;0.68;0.43;;;;;;;16.78;51.79;96842.97;10346319;28;20033;-29
2023/03/29 07:31:49;;;;;;;3.08;1.00;;;;;;;16.78;51.74;96846.34;10361685;28;20441;-30
2023/03/29 07:37:09;;;;;;;1.90;0.75;;;;;;;16.76;51.67;96844.66;10380863;28;20052;-31
2023/03/29 07:42:12;;;;;;;1.48;0.70;;;;;;;16.75;52.10;96860.66;10364244;28;20038;-30
2023/03/29 07:47:14;;;;;;;0.82;0.80;;;;;;;16.75;51.89;96874.13;10359739;28;20560;-30
2023/03/29 07:52:15;;;;;;;0.98;0.47;;;;;;;16.77;51.90;96880.06;10371357;28;20026;-30
2023/03/29 07:57:16;;;;;;;2.88;0.55;;;;;;;16.87;51.88;96888.56;10372917;28;20417;-30
2023/03/29 08:02:23;;;;;;;2.00;0.60;;;;;;;16.90;52.00;96874.25;10368669;28;20065;-30
2023/03/29 08:07:26;;;;;;;1.73;0.68;;;;;;;16.89;51.27;96872.56;10381996;28;20077;-30
2023/03/29 08:12:30;;;;;;;0.95;0.43;;;;;;;16.81;51.69;96874.19;10379774;28;20052;-30
2023/03/29 08:17:33;;;;;;;1.15;0.50;;;;;;;16.79;51.63;96872.47;10368248;28;20129;-29
2023/03/29 08:22:36;;;;;;;0.30;0.30;;;;;;;16.76;51.90;96874.97;10366010;28;20037;-30
2023/03/29 08:27:39;;;;;;;1.23;0.35;;;;;;;16.75;51.66;96879.19;10382555;28;20033;-30
2023/03/29 08:32:41;;;;;;;1.02;0.40;;;;;;;16.74;51.80;96864.84;10364580;28;20025;-30
2023/03/29 08:37:45;;;;;;;0.98;0.70;;;;;;;16.73;51.99;96858.09;10371920;28;20034;-30
2023/03/29 08:43:09;;;;;;;0.50;0.40;;;;;;;16.73;51.91;96860.63;10350540;28;20040;-30
2023/03/29 08:48:37;;;;;;;1.17;0.57;;;;;;;16.74;52.03;96871.59;10384574;28;20045;-29
2023/03/29 08:53:51;;;;;;;1.52;0.45;;;;;;;16.75;51.92;96853.91;10356279;28;20030;-30
2023/03/29 08:58:58;;;;;;;0.57;0.43;;;;;;;16.74;51.85;96856.44;10377332;28;20026;-30
2023/03/29 09:04:15;;;;;;;1.20;0.70;;;;;;;16.76;52.06;96854.75;10370640;28;20116;-30
2023/03/29 09:09:33;;;;;;;3.05;0.55;;;;;;;16.82;51.64;96854.81;10347338;28;20409;-30
2023/03/29 09:14:53;;;;;;;1.42;0.82;;;;;;;16.88;52.05;96854.84;10351359;28;20513;-29
2023/03/29 09:20:21;;;;;;;1.25;0.57;;;;;;;16.90;51.62;96851.50;10363927;28;20502;-30
2023/03/29 09:25:47;;;;;;;1.10;0.70;;;;;;;16.83;51.38;96852.28;10384384;28;20059;-29
2023/03/29 09:30:48;;;;;;;0.53;0.40;;;;;;;16.79;51.54;96854.78;10351140;28;20064;-30
2023/03/29 09:36:07;;;;;;;1.25;0.73;;;;;;;16.85;50.75;96854.84;10345667;28;20483;-30
2023/03/29 09:41:37;;;;;;;2.58;0.57;;;;;;;16.83;49.96;96851.44;10364622;28;20425;-30
2023/03/29 09:46:46;;;;;;;1.33;0.57;;;;;;;16.79;50.58;96849.72;10353388;28;20042;-30
2023/03/29 09:51:48;;;;;;;6.15;0.82;;;;;;;16.78;52.25;96848.03;10365510;28;20037;-30
2023/03/29 09:56:51;;;;;;;2.55;0.60;;;;;;;16.78;51.98;96846.34;10363073;28;20030;-30
2023/03/29 10:02:05;;;;;;;3.88;0.93;;;;;;;16.80;51.18;96848.88;10355022;28;20033;-30
2023/03/29 10:07:07;;;;;;;1.58;0.40;;;;;;;16.77;51.84;96861.50;10354127;28;20037;-29
2023/03/29 10:12:12;;;;;;;3.45;0.75;;;;;;;16.77;51.67;96846.34;10352814;28;20030;-30
2023/03/29 10:17:20;;;;;;;1.38;0.43;;;;;;;16.77;51.84;96841.28;10368969;28;20034;-30
2023/03/29 10:22:24;;;;;;;3.58;0.90;;;;;;;16.80;52.70;96826.97;10355949;28;20030;-31
2023/03/29 10:27:27;;;;;;;5.18;1.05;;;;;;;16.87;53.67;96830.41;10355639;28;20117;-30
2023/03/29 10:32:34;;;;;;;1.67;0.77;;;;;;;16.89;53.23;96823.69;10370981;28;20687;-30
2023/03/29 10:37:39;;;;;;;1.48;0.70;;;;;;;16.86;51.28;96837.16;10388404;28;20432;-30
2023/03/29 10:42:48;;;;;;;1.77;0.90;;;;;;;16.86;52.37;96831.25;10377908;28;20095;-30
2023/03/29 10:47:49;;;;;;;4.82;0.70;;;;;;;16.88;50.93;96832.09;10367605;28;20052;-30
2023/03/29 10:52:50;;;;;;;2.45;1.10;;;;;;;16.85;52.25;96819.44;10372016;28;20026;-30
2023/03/29 10:57:56;;;;;;;7.70;1.10;;;;;;;16.84;52.73;96813.50;10379910;28;20030;-30
2023/03/29 11:03:20;;;;;;;2.13;0.60;;;;;;;16.89;51.60;96813.59;10381772;28;20038;-30
2023/03/29 11:08:50;;;;;;;3.97;2.00;;;;;;;16.88;51.75;96809.34;10380941;28;20045;-30
2023/03/29 11:14:23;;;;;;;7.13;1.50;;;;;;;16.86;53.45;96801.75;10359193;28;20064;-30
2023/03/29 11:19:26;;;;;;;1.77;0.90;;;;;;;16.86;53.54;96795.84;10359540;28;20033;-30
2023/03/29 11:25:08;;;;;;;2.45;0.55;;;;;;;16.88;52.21;96795.03;10380698;28;20044;-30
2023/03/29 11:30:39;;;;;;;8.77;1.17;;;;;;;16.81;53.34;96792.44;10373763;28;20513;-30
2023/03/29 11:36:11;;;;;;;3.10;0.73;;;;;;;16.90;52.76;96792.50;10373479;28;20037;-29
2023/03/29 11:41:17;;;;;;;10.30;1.02;;;;;;;16.94;54.06;96792.53;10372093;28;20045;-30
2023/03/29 11:46:26;;;;;;;4.32;1.00;;;;;;;16.94;54.61;96794.22;10372158;28;20048;-30
2023/03/29 11:51:35;;;;;;;2.55;0.55;;;;;;;16.92;52.18;96791.66;10384412;28;20117;-30
2023/03/29 11:56:51;;;;;;;5.35;0.90;;;;;;;16.87;52.99;96795.84;10373754;28;20046;-29
2023/03/29 12:02:00;;;;;;;4.53;0.75;;;;;;;16.86;53.42;96781.53;10362980;28;20042;-30
2023/03/29 12:07:08;;;;;;;8.18;0.82;;;;;;;16.84;52.96;96778.13;10383662;28;20405;-29
2023/03/29 12:12:27;;;;;;;5.47;1.20;;;;;;;16.86;52.78;96770.56;10380615;28;20037;-30
2023/03/29 12:17:36;;;;;;;4.18;0.70;;;;;;;16.85;52.96;96764.66;10371430;28;20041;-30
2023/03/29 12:22:37;;;;;;;5.22;1.25;;;;;;;16.86;52.40;96760.44;10369870;28;20037;-30
2023/03/29 12:27:48;;;;;;;2.17;0.90;;;;;;;16.86;52.24;96750.31;10377356;28;20505;-30
2023/03/29 12:33:00;;;;;;;3.88;0.90;;;;;;;16.84;52.00;96746.94;10380680;28;20129;-30
2023/03/29 12:38:22;;;;;;;4.20;0.75;;;;;;;16.85;52.07;96738.53;10387050;28;20761;-30
2023/03/29 12:43:42;;;;;;;3.22;0.98;;;;;;;16.85;51.73;96748.63;10375741;28;20045;-30
2023/03/29 12:49:11;;;;;;;;;;;;;;;16.84;52.51;96747.78;10366349;28;20039;-30
2023/03/29 12:54:16;;;;;;;1.15;0.52;;;;;;;16.92;53.01;96735.19;10377802;28;19912;-30
2023/03/29 12:59:25;;;;;;;1.08;0.60;;;;;;;16.88;53.88;96738.53;10359570;28;20038;-30
2023/03/29 13:04:50;;;;;;;4.78;0.88;;;;;;;16.86;52.07;96752.84;10391907;28;20436;-32
2023/03/29 13:09:54;;;;;;;5.93;0.82;;;;;;;16.79;52.46;96728.34;10390292;28;20123;-30
2023/03/29 13:14:59;;;;;;;2.05;0.68;;;;;;;16.76;51.79;96720.75;10374661;28;20034;-30
2023/03/29 13:20:28;;;;;;;1.25;0.50;;;;;;;16.79;52.20;96741.88;10358251;28;20493;-30
2023/03/29 13:26:01;;;;;;;3.28;1.10;;;;;;;16.77;52.52;96737.63;10381348;28;20103;-30
2023/03/29 13:31:06;;;;;;;1.80;0.80;;;;;;;16.79;51.97;96738.47;10359689;28;20041;-30
2023/03/29 13:36:39;;;;;;;3.13;1.63;;;;;;;16.73;52.31;96726.66;10371596;28;20106;-30
2023/03/29 13:41:40;;;;;;;2.35;0.70;;;;;;;16.75;51.91;96732.53;10347443;28;20042;-30
2023/03/29 13:46:41;;;;;;;1.95;0.80;;;;;;;16.76;52.00;96723.28;10381825;28;20042;-29
2023/03/29 13:52:17;;;;;;;2.45;0.63;;;;;;;16.72;52.45;96721.59;10381466;28;20601;-30
2023/03/29 13:57:21;;;;;;;0.68;0.43;;;;;;;16.77;51.86;96724.16;10364601;28;20049;-30
2023/03/29 14:02:44;;;;;;;3.78;1.20;;;;;;;16.84;54.75;96719.97;10361673;28;20044;-30
2023/03/29 14:07:49;;;;;;;4.43;1.05;;;;;;;16.88;55.12;96713.25;10376737;28;20054;-30
2023/03/29 14:12:51;;;;;;;1.90;0.80;;;;;;;16.89;55.10;96705.69;10380468;28;20514;-30
2023/03/29 14:17:54;;;;;;;2.65;0.80;;;;;;;16.86;52.73;96704.81;10376126;28;20064;-30
2023/03/29 14:22:55;;;;;;;2.20;0.73;;;;;;;16.85;51.92;96698.94;10364605;28;20034;-30
2023/03/29 14:27:55;;;;;;;1.20;0.63;;;;;;;16.89;51.22;96700.63;10370634;28;20041;-30
2023/03/29 14:32:56;;;;;;;2.63;1.10;;;;;;;16.94;50.80;96706.56;10381697;28;20108;-30
2023/03/29 14:38:00;;;;;;;3.33;0.88;;;;;;;16.97;51.48;96695.59;10354460;28;20030;-33
2023/03/29 14:43:05;;;;;;;6.65;1.70;;;;;;;16.98;52.38;96694.78;10368747;28;20041;-33
2023/03/29 14:48:10;;;;;;;6.50;1.10;;;;;;;16.96;52.08;96692.25;10376336;28;20042;-34
2023/03/29 14:53:18;;;;;;;2.63;0.82;;;;;;;16.98;50.97;96692.25;10383205;28;20113;-33
2023/03/29 14:58:28;;;;;;;2.35;1.00;;;;;;;16.98;50.78;96694.78;10372691;28;20120;-33
2023/03/29 15:03:28;;;;;;;2.40;0.70;;;;;;;16.98;50.43;96688.03;10377588;28;20402;-33
2023/03/29 15:08:32;;;;;;;3.13;0.90;;;;;;;16.96;50.31;96682.13;10376160;28;20037;-33
2023/03/29 15:13:38;;;;;;;2.05;0.73;;;;;;;16.94;50.49;96688.88;10368244;28;20028;-33
2023/03/29 15:18:41;;;;;;;9.17;1.80;;;;;;;16.99;56.64;96686.34;10366753;28;20037;-33
2023/03/29 15:23:57;;;;;;;5.13;1.40;;;;;;;17.01;56.99;96684.69;10373376;28;20039;-33
2023/03/29 15:29:06;;;;;;;5.13;1.30;;;;;;;16.97;55.55;96680.41;10371240;28;20042;-33
2023/03/29 15:34:06;;;;;;;6.18;1.20;;;;;;;16.94;53.50;96675.34;10373059;28;20061;-33
2023/03/29 15:39:15;;;;;;;2.97;1.17;;;;;;;16.94;52.56;96677.88;10380141;28;20069;-33
2023/03/29 15:44:19;;;;;;;6.75;1.38;;;;;;;16.92;51.78;96675.34;10374132;28;20823;-33
2023/03/29 15:49:20;;;;;;;3.63;0.88;;;;;;;16.94;51.62;96677.88;10369127;28;20042;-33
2023/03/29 15:54:21;;;;;;;4.33;1.53;;;;;;;16.94;51.53;96677.88;10381035;28;20471;-33
2023/03/29 15:59:22;;;;;;;3.70;1.08;;;;;;;16.94;51.55;96670.31;10371182;28;20327;-33
2023/03/29 16:04:22;;;;;;;1.77;0.98;;;;;;;16.93;51.27;96676.19;10382701;28;20053;-33
2023/03/29 16:09:24;;;;;;;2.00;0.70;;;;;;;16.95;51.04;96669.47;10387349;28;20030;-33
2023/03/29 16:14:27;;;;;;;2.35;0.75;;;;;;;16.93;51.21;96668.63;10378704;28;20033;-33
2023/03/29 16:19:29;;;;;;;2.90;0.77;;;;;;;16.94;51.19;96672.81;10381516;28;20098;-32
2023/03/29 16:24:31;;;;;;;2.83;0.57;;;;;;;16.92;50.45;96669.44;10386024;28;20029;-33
2023/03/29 16:29:31;;;;;;;4.95;1.33;;;;;;;16.94;55.50;96672.81;10371643;28;20036;-33
2023/03/29 16:34:32;;;;;;;5.63;1.90;;;;;;;16.97;56.10;96667.78;10369119;28;20026;-33
2023/03/29 16:39:32;;;;;;;4.30;2.47;;;;;;;16.98;55.53;96664.44;10362516;28;20049;-33
2023/03/29 16:44:32;;;;;;;2.13;0.93;;;;;;;16.90;53.55;96666.91;10374819;28;20042;-32
2023/03/29 16:49:33;;;;;;;2.53;1.20;;;;;;;16.91;51.87;96670.28;10372753;28;20157;-32
2023/03/29 16:54:33;;;;;;;2.78;0.70;;;;;;;16.90;50.81;96641.63;10377318;28;20106;-33
2023/03/29 16:59:34;;;;;;;3.97;1.10;;;;;;;16.92;50.96;96634.88;10371271;28;20037;-33
2023/03/29 17:04:34;;;;;;;1.75;0.68;;;;;;;16.93;50.24;96615.50;10380633;28;20032;-33
2023/03/29 17:09:35;;;;;;;3.22;1.17;;;;;;;16.95;50.49;96603.72;10363636;28;20038;-33
2023/03/29 17:14:36;;;;;;;3.80;1.10;;;;;;;16.95;50.86;96619.75;10365723;28;20644;-33
2023/03/29 17:19:36;;;;;;;4.57;1.20;;;;;;;16.96;50.99;96635.75;10364823;28;20057;-33
2023/03/29 17:24:36;;;;;;;7.00;3.00;;;;;;;16.95;50.93;96644.16;10366642;28;20038;-33
2023/03/29 17:29:37;;;;;;;5.23;1.17;;;;;;;16.94;50.47;96642.47;10360871;28;20030;-33
2023/03/29 17:34:37;;;;;;;3.03;1.20;;;;;;;16.94;51.64;96632.38;10358046;28;20091;-32
2023/03/29 17:39:38;;;;;;;1.30;0.90;;;;;;;16.95;50.63;96639.13;10368629;28;20289;-33
2023/03/29 17:44:38;;;;;;;11.27;2.25;;;;;;;17.01;56.49;96661.91;10374949;28;20037;-32
2023/03/29 17:49:39;;;;;;;10.50;3.13;;;;;;;17.04;57.00;96656.84;10361580;28;20078;-33
2023/03/29 17:54:39;;;;;;;9.05;2.13;;;;;;;17.00;56.50;96653.47;10366185;28;20040;-33
2023/03/29 17:59:40;;;;;;;11.40;1.95;;;;;;;16.86;53.21;96656.78;10363484;28;20044;-33
2023/03/29 18:04:41;;;;;;;8.27;1.77;;;;;;;16.89;52.68;96674.50;10364088;28;20038;-33
2023/03/29 18:09:41;;;;;;;7.30;1.67;;;;;;;16.93;52.64;96666.94;10361297;28;20034;-32
2023/03/29 18:14:41;;;;;;;5.75;1.67;;;;;;;16.93;51.23;96640.78;10348528;28;20034;-33
2023/03/29 18:19:42;;;;;;;5.83;1.43;;;;;;;16.92;51.46;96608.78;10351068;28;20040;-33
2023/03/29 18:24:42;;;;;;;5.40;1.20;;;;;;;16.91;51.08;96618.03;10348883;28;20289;-32
2023/03/29 18:29:43;;;;;;;3.63;1.55;;;;;;;16.91;51.53;96622.25;10366357;28;20084;-33
2023/03/29 18:34:44;;;;;;;8.93;2.40;;;;;;;16.94;51.13;96622.25;10354348;28;20042;-33
2023/03/29 18:39:46;;;;;;;5.18;1.80;;;;;;;16.94;51.36;96617.19;10358927;28;20042;-33
2023/03/29 18:44:47;;;;;;;5.28;1.40;;;;;;;16.95;51.67;96613.81;10363211;28;20110;-33
2023/03/29 18:49:47;;;;;;;5.97;1.73;;;;;;;16.96;51.39;96620.56;10365320;28;20894;-33
2023/03/29 18:54:48;;;;;;;8.30;2.40;;;;;;;16.98;56.30;96611.34;10376115;28;20087;-32
2023/03/29 18:59:48;;;;;;;4.40;1.80;;;;;;;17.00;57.04;96609.66;10378228;28;20045;-33
2023/03/29 19:04:48;;;;;;;6.80;1.93;;;;;;;17.01;56.99;96618.91;10376503;28;20057;-33
2023/03/29 19:09:49;;;;;;;6.87;1.87;;;;;;;16.96;54.99;96618.91;10377162;28;20045;-32
2023/03/29 19:14:49;;;;;;;3.27;1.27;;;;;;;16.94;53.34;96607.09;10371461;28;20040;-33
2023/03/29 19:19:49;;;;;;;2.97;1.30;;;;;;;16.93;53.11;96602.88;10369107;28;20038;-33
2023/03/29 19:24:50;;;;;;;1.88;1.20;;;;;;;16.92;51.85;96608.78;10370759;28;20292;-33
2023/03/29 19:29:50;;;;;;;6.67;2.20;;;;;;;16.90;51.70;96605.41;10376647;28;20049;-32
2023/03/29 19:34:50;;;;;;;3.03;1.10;;;;;;;16.89;51.70;96598.66;10379624;28;20060;-33
2023/03/29 19:39:53;;;;;;;3.13;1.30;;;;;;;16.88;51.40;96590.22;10379952;28;20124;-34
2023/03/29 19:44:53;;;;;;;7.20;1.63;;;;;;;16.90;51.32;96590.22;10358414;28;20426;-33
2023/03/29 19:49:57;;;;;;;4.13;1.00;;;;;;;16.92;50.64;96579.25;10356414;28;20042;-33
2023/03/29 19:54:58;;;;;;;3.00;1.38;;;;;;;16.92;51.35;96596.94;10363452;28;20033;-33
2023/03/29 19:59:58;;;;;;;6.90;1.58;;;;;;;16.92;51.31;96586.84;10354197;28;20042;-33
2023/03/29 20:05:00;;;;;;;2.45;1.20;;;;;;;16.93;51.13;96575.06;10371681;28;20042;-32
2023/03/29 20:10:00;;;;;;;4.75;1.40;;;;;;;16.96;56.36;96575.06;10354000;28;20037;-32
2023/03/29 20:15:01;;;;;;;2.53;1.40;;;;;;;16.96;56.56;96565.78;10387118;28;20037;-33
2023/03/29 20:20:07;;;;;;;5.22;2.08;;;;;;;16.95;56.05;96559.06;10369414;28;20045;-33
2023/03/29 20:25:08;;;;;;;3.80;1.10;;;;;;;16.89;54.42;96553.13;10370686;28;20061;-33
2023/03/29 20:30:09;;;;;;;3.50;1.40;;;;;;;16.89;52.68;96537.97;10384335;28;20040;-33
2023/03/29 20:35:10;;;;;;;2.83;1.30;;;;;;;16.90;52.71;96534.59;10385773;28;20026;-32
2023/03/29 20:40:11;;;;;;;3.25;1.63;;;;;;;16.89;52.53;96535.44;10375058;28;20493;-33
2023/03/29 20:45:17;;;;;;;1.80;1.20;;;;;;;16.91;51.94;96526.16;10387830;28;20092;-32
2023/03/29 20:50:18;;;;;;;2.28;1.30;;;;;;;16.93;52.08;96532.94;10381445;28;20033;-35
2023/03/29 20:55:21;;;;;;;2.83;1.50;;;;;;;16.96;52.09;96525.34;10361296;28;20418;-34
2023/03/29 21:00:21;;;;;;;2.08;1.13;;;;;;;16.96;52.14;96524.47;10367557;28;20103;-33
2023/03/29 21:05:22;;;;;;;2.23;1.00;;;;;;;16.95;51.88;96518.59;10368856;28;20552;-33
2023/03/29 21:10:24;;;;;;;4.85;1.30;;;;;;;16.95;51.61;96522.78;10362280;28;20098;-33
2023/03/29 21:15:26;;;;;;;1.77;1.00;;;;;;;16.94;52.06;96508.47;10371763;28;20046;-33
2023/03/29 21:20:26;;;;;;;2.00;1.38;;;;;;;16.94;54.40;96514.38;10373109;28;20034;-33
2023/03/29 21:25:27;;;;;;;3.37;1.40;;;;;;;17.00;58.26;96501.72;10365287;28;20026;-33
2023/03/29 21:30:27;;;;;;;2.93;1.37;;;;;;;17.00;58.48;96481.50;10359089;28;20125;-33
2023/03/29 21:35:27;;;;;;;2.57;1.10;;;;;;;16.93;55.69;96484.03;10364129;28;20088;-34
2023/03/29 21:40:30;;;;;;;3.00;0.97;;;;;;;16.90;53.97;96479.78;10364807;28;20441;-33
2023/03/29 21:45:30;;;;;;;4.15;1.38;;;;;;;16.91;52.96;96470.53;10358245;28;20026;-32
2023/03/29 21:50:31;;;;;;;2.20;0.90;;;;;;;16.90;53.22;96474.75;10366148;28;20034;-33
2023/03/29 21:55:35;;;;;;;1.42;0.95;;;;;;;16.90;52.50;96464.63;10361530;28;20085;-33
2023/03/29 22:00:35;;;;;;;3.22;1.45;;;;;;;16.89;52.27;96468.00;10361379;28;20057;-33
2023/03/29 22:05:35;;;;;;;2.00;0.93;;;;;;;16.88;53.62;96458.72;10368192;28;20048;-33
2023/03/29 22:10:40;;;;;;;3.60;1.30;;;;;;;16.89;52.67;96467.16;10368903;28;20050;-34
2023/03/29 22:15:41;;;;;;;2.45;0.82;;;;;;;16.88;52.68;96462.94;10367675;28;20331;-34
2023/03/29 22:20:43;;;;;;;1.92;1.00;;;;;;;16.83;53.24;96459.56;10363691;28;20117;-33
2023/03/29 22:25:44;;;;;;;2.10;0.90;;;;;;;16.86;53.30;96451.97;10360603;28;20077;-33
2023/03/29 22:30:44;;;;;;;2.72;1.13;;;;;;;16.86;53.19;96444.38;10363143;28;20065;-33
2023/03/29 22:35:45;;;;;;;2.45;1.48;;;;;;;16.92;58.53;96447.75;10353507;28;20048;-33
2023/03/29 22:40:46;;;;;;;3.30;1.40;;;;;;;16.95;58.56;96440.19;10363251;28;20498;-33
2023/03/29 22:45:47;;;;;;;4.35;1.38;;;;;;;16.93;57.27;96448.63;10362107;28;20080;-33
2023/03/29 22:50:47;;;;;;;2.53;1.35;;;;;;;16.84;56.08;96430.91;10355505;28;20030;-33
2023/03/29 22:55:48;;;;;;;2.57;1.00;;;;;;;16.82;55.69;96425.00;10366672;28;20490;-32
2023/03/29 23:00:48;;;;;;;1.85;0.98;;;;;;;16.80;55.29;96411.50;10359489;28;20425;-32
2023/03/29 23:05:54;;;;;;;2.80;0.90;;;;;;;16.81;53.85;96424.16;10370247;28;21069;-33
2023/03/29 23:10:55;;;;;;;5.43;0.93;;;;;;;16.79;54.99;96414.88;10367054;28;20042;-33
2023/03/29 23:15:57;;;;;;;2.38;1.70;;;;;;;16.79;54.46;96418.25;10359151;28;20497;-33
2023/03/29 23:20:59;;;;;;;2.08;1.00;;;;;;;16.78;55.17;96390.44;10363496;28;20058;-33
2023/03/29 23:26:00;;;;;;;3.70;0.93;;;;;;;16.76;54.73;96379.50;10367243;28;20029;-33
2023/03/29 23:31:10;;;;;;;1.58;0.65;;;;;;;16.78;55.10;96390.44;10358396;28;20030;-33
2023/03/29 23:36:13;;;;;;;1.85;0.85;;;;;;;16.78;54.64;96398.88;10360334;28;20171;-34
2023/03/29 23:41:15;;;;;;;4.35;0.88;;;;;;;16.76;55.47;96379.50;10366239;28;20037;-32